PDA1204 LIEO-UKBB
Flight info
| Callsign | PDA1204 |
|---|---|
| Flight time | 2h 31m |
| Altitude | 35000 |
| Route | BATOX L5 VALMA L865 ANC M986 IBENI DCT NIVES DCT VEBAL DCT DODAR DCT LONLA/K0845F350 M986 IVF M991 NIROV T199 GAMLA N180 SULUM |
| Aircraft | B738/M-SDE2E3FGHIRWXY/LB1 |
Departure
| Time | 2026-04-28 16:22 |
|---|---|
| Airport | Olbia Costa Smeralda Airport (LIEO) |
Arrival
| Time | 2026-04-28 18:53 |
|---|---|
| Airport | Boryspil International Airport (UKBB) |
| Time | Latitude | Longitude | Altitude | Speed | Heading |
|---|---|---|---|---|---|
| 2026-04-28 16:06 | 40.90270 | 9.51706 | 26 ft | 0 kts | 324° |
| 2026-04-28 16:14 | 40.90245 | 9.51733 | 31 ft | 4 kts | 310° |
| 2026-04-28 16:15 | 40.90235 | 9.51786 | 30 ft | 0 kts | 235° |
| 2026-04-28 16:17 | 40.90232 | 9.51782 | 30 ft | 4 kts | 235° |
| 2026-04-28 16:17 | 40.90189 | 9.51701 | 33 ft | 16 kts | 235° |
| 2026-04-28 16:18 | 40.90122 | 9.51574 | 33 ft | 17 kts | 235° |
| 2026-04-28 16:18 | 40.90032 | 9.51501 | 32 ft | 17 kts | 158° |
| 2026-04-28 16:18 | 40.89923 | 9.51472 | 32 ft | 19 kts | 225° |
| 2026-04-28 16:18 | 40.89842 | 9.51324 | 33 ft | 20 kts | 235° |
| 2026-04-28 16:19 | 40.89764 | 9.51177 | 33 ft | 19 kts | 236° |
| 2026-04-28 16:19 | 40.89689 | 9.51032 | 32 ft | 19 kts | 236° |
| 2026-04-28 16:19 | 40.89617 | 9.50896 | 33 ft | 18 kts | 234° |
| 2026-04-28 16:19 | 40.89546 | 9.50763 | 33 ft | 17 kts | 235° |
| 2026-04-28 16:20 | 40.89473 | 9.50624 | 33 ft | 23 kts | 236° |
| 2026-04-28 16:20 | 40.89388 | 9.50468 | 33 ft | 2 kts | 223° |
| 2026-04-28 16:20 | 40.89375 | 9.50455 | 33 ft | 8 kts | 212° |
| 2026-04-28 16:21 | 40.89290 | 9.50469 | 33 ft | 17 kts | 130° |
| 2026-04-28 16:21 | 40.89275 | 9.50619 | 33 ft | 17 kts | 74° |
| 2026-04-28 16:21 | 40.89352 | 9.50781 | 31 ft | 38 kts | 55° |
| 2026-04-28 16:21 | 40.89649 | 9.51346 | 33 ft | 109 kts | 55° |
| 2026-04-28 16:22 | 40.90202 | 9.52404 | 38 ft | 167 kts | 56° |
| 2026-04-28 16:22 | 40.90918 | 9.53776 | 492 ft | 185 kts | 56° |
| 2026-04-28 16:22 | 40.91636 | 9.55162 | 1423 ft | 182 kts | 56° |
| 2026-04-28 16:22 | 40.92374 | 9.56549 | 2158 ft | 191 kts | 55° |
| 2026-04-28 16:23 | 40.93189 | 9.58081 | 2433 ft | 220 kts | 55° |
| 2026-04-28 16:23 | 40.94116 | 9.59819 | 2731 ft | 239 kts | 55° |
| 2026-04-28 16:23 | 40.95091 | 9.61646 | 3299 ft | 246 kts | 55° |
| 2026-04-28 16:23 | 40.96087 | 9.63513 | 4034 ft | 250 kts | 55° |
| 2026-04-28 16:24 | 40.97088 | 9.65393 | 4916 ft | 249 kts | 55° |
| 2026-04-28 16:24 | 40.98095 | 9.67282 | 5713 ft | 252 kts | 55° |
| 2026-04-28 16:24 | 40.99104 | 9.69225 | 6335 ft | 264 kts | 57° |
| 2026-04-28 16:24 | 41.00130 | 9.71334 | 6850 ft | 278 kts | 58° |
| 2026-04-28 16:25 | 41.01175 | 9.73522 | 7586 ft | 283 kts | 58° |
| 2026-04-28 16:25 | 41.02230 | 9.75734 | 8378 ft | 285 kts | 58° |
| 2026-04-28 16:25 | 41.03298 | 9.77970 | 9147 ft | 289 kts | 58° |
| 2026-04-28 16:25 | 41.04379 | 9.80231 | 9892 ft | 292 kts | 58° |
| 2026-04-28 16:26 | 41.05477 | 9.82525 | 10466 ft | 303 kts | 58° |
| 2026-04-28 16:26 | 41.06641 | 9.84956 | 10642 ft | 327 kts | 58° |
| 2026-04-28 16:26 | 41.07902 | 9.87591 | 10824 ft | 349 kts | 58° |
| 2026-04-28 16:26 | 41.09246 | 9.90399 | 11001 ft | 370 kts | 58° |
| 2026-04-28 16:27 | 41.10647 | 9.93328 | 11391 ft | 381 kts | 58° |
| 2026-04-28 16:27 | 41.12079 | 9.96323 | 12007 ft | 386 kts | 58° |
| 2026-04-28 16:27 | 41.14967 | 10.02372 | 13318 ft | 391 kts | 58° |
| 2026-04-28 16:28 | 41.16429 | 10.05442 | 13921 ft | 395 kts | 58° |
| 2026-04-28 16:28 | 41.17905 | 10.08540 | 14510 ft | 399 kts | 58° |
| 2026-04-28 16:28 | 41.19391 | 10.11662 | 15105 ft | 402 kts | 58° |
| 2026-04-28 16:28 | 41.20869 | 10.14774 | 15684 ft | 405 kts | 58° |
| 2026-04-28 16:29 | 41.23266 | 10.21604 | 16778 ft | 411 kts | 69° |
| 2026-04-28 16:29 | 41.25287 | 10.28791 | 17810 ft | 418 kts | 70° |
| 2026-04-28 16:30 | 41.26315 | 10.32415 | 18307 ft | 421 kts | 69° |
| 2026-04-28 16:30 | 41.27368 | 10.36065 | 18795 ft | 424 kts | 69° |
| 2026-04-28 16:30 | 41.28439 | 10.39731 | 19273 ft | 427 kts | 69° |
| 2026-04-28 16:30 | 41.29526 | 10.43429 | 19733 ft | 430 kts | 69° |
| 2026-04-28 16:31 | 41.30624 | 10.47149 | 20207 ft | 433 kts | 69° |
| 2026-04-28 16:31 | 41.31727 | 10.50889 | 20664 ft | 436 kts | 69° |
| 2026-04-28 16:31 | 41.32836 | 10.54650 | 21093 ft | 439 kts | 69° |
| 2026-04-28 16:31 | 41.33950 | 10.58440 | 21498 ft | 441 kts | 69° |
| 2026-04-28 16:32 | 41.35072 | 10.62263 | 21895 ft | 444 kts | 69° |
| 2026-04-28 16:32 | 41.37329 | 10.69971 | 22658 ft | 449 kts | 69° |
| 2026-04-28 16:32 | 41.38466 | 10.73863 | 23015 ft | 452 kts | 69° |
| 2026-04-28 16:33 | 41.39592 | 10.77724 | 23366 ft | 454 kts | 69° |
| 2026-04-28 16:33 | 41.40364 | 10.80375 | 23599 ft | 456 kts | 69° |
| 2026-04-28 16:33 | 41.41890 | 10.85616 | 24046 ft | 459 kts | 69° |
| 2026-04-28 16:33 | 41.43030 | 10.89599 | 24374 ft | 461 kts | 69° |
| 2026-04-28 16:34 | 41.44152 | 10.93617 | 24691 ft | 463 kts | 70° |
| 2026-04-28 16:34 | 41.45271 | 10.97659 | 25000 ft | 465 kts | 70° |
| 2026-04-28 16:34 | 41.46397 | 11.01714 | 25300 ft | 468 kts | 70° |
| 2026-04-28 16:34 | 41.47534 | 11.05802 | 25593 ft | 470 kts | 70° |
| 2026-04-28 16:35 | 41.48676 | 11.09887 | 25871 ft | 472 kts | 69° |
| 2026-04-28 16:35 | 41.49834 | 11.13995 | 26143 ft | 473 kts | 69° |
| 2026-04-28 16:35 | 41.50998 | 11.18121 | 26402 ft | 475 kts | 69° |
| 2026-04-28 16:35 | 41.52146 | 11.22196 | 26656 ft | 477 kts | 69° |
| 2026-04-28 16:36 | 41.53318 | 11.26367 | 26906 ft | 479 kts | 70° |
| 2026-04-28 16:36 | 41.54485 | 11.30534 | 27145 ft | 481 kts | 70° |
| 2026-04-28 16:36 | 41.55672 | 11.34777 | 27389 ft | 482 kts | 69° |
| 2026-04-28 16:36 | 41.57118 | 11.38753 | 27621 ft | 483 kts | 55° |
| 2026-04-28 16:37 | 41.59362 | 11.42072 | 27966 ft | 482 kts | 39° |
| 2026-04-28 16:37 | 41.62159 | 11.44500 | 28358 ft | 479 kts | 24° |
| 2026-04-28 16:37 | 41.65275 | 11.46074 | 28721 ft | 477 kts | 19° |
| 2026-04-28 16:38 | 41.71573 | 11.48959 | 29259 ft | 479 kts | 19° |
| 2026-04-28 16:38 | 41.74726 | 11.50422 | 29577 ft | 478 kts | 19° |
| 2026-04-28 16:38 | 41.77856 | 11.51903 | 29931 ft | 477 kts | 19° |
| 2026-04-28 16:38 | 41.80973 | 11.53402 | 30278 ft | 476 kts | 20° |
| 2026-04-28 16:39 | 41.84085 | 11.54913 | 30586 ft | 475 kts | 20° |
| 2026-04-28 16:39 | 41.87191 | 11.56429 | 30874 ft | 475 kts | 20° |
| 2026-04-28 16:39 | 41.90298 | 11.57948 | 31182 ft | 474 kts | 20° |
| 2026-04-28 16:39 | 41.93393 | 11.59462 | 31486 ft | 473 kts | 20° |
| 2026-04-28 16:40 | 41.96488 | 11.60976 | 31779 ft | 473 kts | 20° |
| 2026-04-28 16:40 | 41.99577 | 11.62488 | 32053 ft | 472 kts | 20° |
| 2026-04-28 16:40 | 42.02661 | 11.63998 | 32329 ft | 472 kts | 20° |
| 2026-04-28 16:40 | 42.05748 | 11.65511 | 32608 ft | 471 kts | 20° |
| 2026-04-28 16:41 | 42.08824 | 11.67020 | 32877 ft | 471 kts | 20° |
| 2026-04-28 16:41 | 42.11897 | 11.68530 | 33132 ft | 470 kts | 20° |
| 2026-04-28 16:41 | 42.14934 | 11.70023 | 33380 ft | 470 kts | 20° |
| 2026-04-28 16:41 | 42.17997 | 11.71530 | 33636 ft | 469 kts | 20° |
| 2026-04-28 16:42 | 42.21057 | 11.73064 | 33880 ft | 469 kts | 22° |
| 2026-04-28 16:42 | 42.23986 | 11.75002 | 34096 ft | 469 kts | 29° |
| 2026-04-28 16:42 | 42.26813 | 11.77196 | 34339 ft | 468 kts | 30° |
| 2026-04-28 16:42 | 42.29609 | 11.79435 | 34574 ft | 467 kts | 31° |
| 2026-04-28 16:43 | 42.32409 | 11.81685 | 34784 ft | 467 kts | 30° |
| 2026-04-28 16:43 | 42.35198 | 11.83909 | 34999 ft | 467 kts | 30° |
| 2026-04-28 16:43 | 42.38021 | 11.86142 | 34981 ft | 470 kts | 30° |
| 2026-04-28 16:44 | 42.43669 | 11.90573 | 34992 ft | 467 kts | 30° |
| 2026-04-28 16:44 | 42.49286 | 11.94976 | 35000 ft | 464 kts | 30° |
| 2026-04-28 16:45 | 42.54831 | 11.99337 | 35000 ft | 462 kts | 30° |
| 2026-04-28 16:45 | 42.60373 | 12.03741 | 34999 ft | 461 kts | 33° |
| 2026-04-28 16:46 | 42.65192 | 12.09440 | 35014 ft | 460 kts | 47° |
| 2026-04-28 16:46 | 42.69521 | 12.15870 | 35001 ft | 462 kts | 47° |
| 2026-04-28 16:47 | 42.73931 | 12.22246 | 35005 ft | 464 kts | 46° |
| 2026-04-28 16:47 | 42.78375 | 12.28660 | 35062 ft | 468 kts | 47° |
| 2026-04-28 16:48 | 42.82845 | 12.35142 | 35076 ft | 469 kts | 47° |
| 2026-04-28 16:48 | 42.87291 | 12.41613 | 35015 ft | 465 kts | 47° |
| 2026-04-28 16:49 | 42.91681 | 12.48015 | 35004 ft | 466 kts | 47° |
| 2026-04-28 16:49 | 42.96118 | 12.54502 | 35008 ft | 468 kts | 47° |
| 2026-04-28 16:50 | 43.00574 | 12.61030 | 35006 ft | 470 kts | 47° |
| 2026-04-28 16:50 | 43.05034 | 12.67578 | 35004 ft | 471 kts | 47° |
| 2026-04-28 16:51 | 43.09502 | 12.74132 | 34999 ft | 471 kts | 47° |
| 2026-04-28 16:51 | 43.13209 | 12.79571 | 35001 ft | 470 kts | 47° |
| 2026-04-28 16:52 | 43.17666 | 12.86129 | 34994 ft | 469 kts | 47° |
| 2026-04-28 16:52 | 43.22104 | 12.92676 | 35001 ft | 468 kts | 47° |
| 2026-04-28 16:53 | 43.26518 | 12.99229 | 35002 ft | 467 kts | 47° |
| 2026-04-28 16:53 | 43.30933 | 13.05785 | 35001 ft | 467 kts | 47° |
| 2026-04-28 16:54 | 43.35367 | 13.12299 | 35003 ft | 466 kts | 47° |
| 2026-04-28 16:54 | 43.39782 | 13.18813 | 34997 ft | 465 kts | 47° |
| 2026-04-28 16:55 | 43.44168 | 13.25364 | 35006 ft | 465 kts | 47° |
| 2026-04-28 16:55 | 43.48522 | 13.31894 | 35003 ft | 465 kts | 47° |
| 2026-04-28 16:56 | 43.52898 | 13.38464 | 34998 ft | 465 kts | 47° |
| 2026-04-28 16:56 | 43.57272 | 13.45038 | 35007 ft | 465 kts | 47° |
| 2026-04-28 16:57 | 43.62109 | 13.50954 | 35013 ft | 465 kts | 37° |
| 2026-04-28 16:57 | 43.67315 | 13.56289 | 35005 ft | 466 kts | 36° |
| 2026-04-28 16:58 | 43.72521 | 13.61647 | 34997 ft | 467 kts | 37° |
| 2026-04-28 16:58 | 43.77701 | 13.67069 | 35001 ft | 467 kts | 37° |
| 2026-04-28 16:59 | 43.82839 | 13.72486 | 35002 ft | 467 kts | 37° |
| 2026-04-28 16:59 | 43.88008 | 13.77948 | 34996 ft | 468 kts | 37° |
| 2026-04-28 17:00 | 43.93188 | 13.83431 | 34999 ft | 468 kts | 37° |
| 2026-04-28 17:00 | 43.98359 | 13.88914 | 35002 ft | 468 kts | 37° |
| 2026-04-28 17:01 | 44.03267 | 13.94836 | 34999 ft | 467 kts | 48° |
| 2026-04-28 17:01 | 44.07548 | 14.01667 | 35007 ft | 467 kts | 50° |
| 2026-04-28 17:02 | 44.11740 | 14.08497 | 35008 ft | 467 kts | 49° |
| 2026-04-28 17:02 | 44.15945 | 14.15283 | 35003 ft | 467 kts | 49° |
| 2026-04-28 17:03 | 44.22347 | 14.25546 | 35005 ft | 467 kts | 49° |
| 2026-04-28 17:03 | 44.26617 | 14.32398 | 35001 ft | 467 kts | 49° |
| 2026-04-28 17:04 | 44.32981 | 14.42647 | 34997 ft | 467 kts | 49° |
| 2026-04-28 17:05 | 44.39353 | 14.52949 | 35002 ft | 467 kts | 49° |
| 2026-04-28 17:06 | 44.45720 | 14.63280 | 35003 ft | 467 kts | 49° |
| 2026-04-28 17:06 | 44.52068 | 14.73618 | 35002 ft | 467 kts | 49° |
| 2026-04-28 17:07 | 44.56297 | 14.80526 | 34998 ft | 467 kts | 49° |
| 2026-04-28 17:07 | 44.60497 | 14.87405 | 35002 ft | 467 kts | 49° |
| 2026-04-28 17:08 | 44.64724 | 14.94342 | 35001 ft | 467 kts | 49° |
| 2026-04-28 17:08 | 44.68944 | 15.01287 | 34998 ft | 467 kts | 50° |
| 2026-04-28 17:09 | 44.73165 | 15.08250 | 34996 ft | 467 kts | 50° |
| 2026-04-28 17:09 | 44.77360 | 15.15188 | 34996 ft | 467 kts | 50° |
| 2026-04-28 17:10 | 44.81566 | 15.22159 | 35002 ft | 467 kts | 50° |
| 2026-04-28 17:10 | 44.85776 | 15.29155 | 35001 ft | 467 kts | 50° |
| 2026-04-28 17:11 | 44.89986 | 15.36169 | 35002 ft | 467 kts | 50° |
| 2026-04-28 17:11 | 44.94180 | 15.43175 | 34997 ft | 467 kts | 50° |
| 2026-04-28 17:12 | 44.98369 | 15.50188 | 35005 ft | 467 kts | 50° |
| 2026-04-28 17:12 | 45.02557 | 15.57216 | 34996 ft | 467 kts | 50° |
| 2026-04-28 17:13 | 45.06738 | 15.64252 | 35009 ft | 467 kts | 50° |
| 2026-04-28 17:13 | 45.10911 | 15.71292 | 35002 ft | 467 kts | 50° |
| 2026-04-28 17:14 | 45.15079 | 15.78341 | 34995 ft | 467 kts | 50° |
| 2026-04-28 17:14 | 45.19243 | 15.85400 | 35001 ft | 467 kts | 50° |
| 2026-04-28 17:15 | 45.23402 | 15.92483 | 34999 ft | 467 kts | 51° |
| 2026-04-28 17:15 | 45.27446 | 15.99609 | 35008 ft | 467 kts | 51° |
| 2026-04-28 17:16 | 45.31514 | 16.06872 | 35002 ft | 467 kts | 51° |
| 2026-04-28 17:16 | 45.35534 | 16.14050 | 34997 ft | 467 kts | 51° |
| 2026-04-28 17:17 | 45.39588 | 16.21285 | 35006 ft | 467 kts | 51° |
| 2026-04-28 17:17 | 45.43635 | 16.28518 | 34998 ft | 467 kts | 51° |
| 2026-04-28 17:18 | 45.47664 | 16.35737 | 35003 ft | 467 kts | 51° |
| 2026-04-28 17:18 | 45.51704 | 16.42996 | 34997 ft | 467 kts | 51° |
| 2026-04-28 17:19 | 45.55741 | 16.50268 | 34998 ft | 467 kts | 52° |
| 2026-04-28 17:19 | 45.59742 | 16.57495 | 35004 ft | 467 kts | 52° |
| 2026-04-28 17:20 | 45.63094 | 16.63563 | 35002 ft | 467 kts | 52° |
| 2026-04-28 17:20 | 45.67801 | 16.72107 | 35000 ft | 467 kts | 52° |
| 2026-04-28 17:21 | 45.71795 | 16.79376 | 35000 ft | 467 kts | 52° |
| 2026-04-28 17:22 | 45.77813 | 16.90366 | 35000 ft | 467 kts | 52° |
| 2026-04-28 17:22 | 45.81817 | 16.97702 | 34997 ft | 467 kts | 52° |
| 2026-04-28 17:23 | 45.87813 | 17.08725 | 34997 ft | 467 kts | 52° |
| 2026-04-28 17:23 | 45.91809 | 17.16094 | 35009 ft | 467 kts | 52° |
| 2026-04-28 17:24 | 45.95792 | 17.23458 | 35007 ft | 467 kts | 52° |
| 2026-04-28 17:24 | 45.99776 | 17.30831 | 34997 ft | 467 kts | 52° |
| 2026-04-28 17:25 | 46.05916 | 17.41654 | 35000 ft | 467 kts | 50° |
| 2026-04-28 17:26 | 46.10054 | 17.48878 | 34997 ft | 467 kts | 51° |
| 2026-04-28 17:26 | 46.14169 | 17.56122 | 35005 ft | 467 kts | 51° |
| 2026-04-28 17:27 | 46.18281 | 17.63403 | 35171 ft | 469 kts | 51° |
| 2026-04-28 17:27 | 46.20343 | 17.67066 | 35429 ft | 468 kts | 51° |
| 2026-04-28 17:27 | 46.22387 | 17.70699 | 35718 ft | 465 kts | 51° |
| 2026-04-28 17:27 | 46.24400 | 17.74284 | 35993 ft | 464 kts | 51° |
| 2026-04-28 17:28 | 46.26431 | 17.77903 | 36213 ft | 463 kts | 51° |
| 2026-04-28 17:28 | 46.30490 | 17.85151 | 36519 ft | 464 kts | 51° |
| 2026-04-28 17:28 | 46.32520 | 17.88784 | 36701 ft | 464 kts | 51° |
| 2026-04-28 17:29 | 46.34546 | 17.92413 | 36892 ft | 463 kts | 51° |
| 2026-04-28 17:29 | 46.36571 | 17.96045 | 37000 ft | 464 kts | 51° |
| 2026-04-28 17:30 | 46.42670 | 18.07013 | 36998 ft | 465 kts | 51° |
| 2026-04-28 17:30 | 46.48732 | 18.17960 | 37001 ft | 462 kts | 51° |
| 2026-04-28 17:31 | 46.54746 | 18.28860 | 37001 ft | 460 kts | 51° |
| 2026-04-28 17:32 | 46.60711 | 18.39716 | 37002 ft | 460 kts | 51° |
| 2026-04-28 17:32 | 46.64694 | 18.46988 | 37003 ft | 460 kts | 51° |
| 2026-04-28 17:33 | 46.68684 | 18.54294 | 37002 ft | 461 kts | 51° |
| 2026-04-28 17:33 | 46.71329 | 18.59146 | 37003 ft | 462 kts | 51° |
| 2026-04-28 17:34 | 46.76653 | 18.68939 | 37003 ft | 463 kts | 52° |
| 2026-04-28 17:34 | 46.80660 | 18.76334 | 37003 ft | 464 kts | 52° |
| 2026-04-28 17:35 | 46.84670 | 18.83754 | 37002 ft | 465 kts | 52° |
| 2026-04-28 17:35 | 46.88677 | 18.91187 | 37002 ft | 466 kts | 52° |
| 2026-04-28 17:36 | 46.92009 | 18.97383 | 37001 ft | 466 kts | 52° |
| 2026-04-28 17:36 | 46.96014 | 19.04851 | 37001 ft | 466 kts | 52° |
| 2026-04-28 17:37 | 47.00016 | 19.12333 | 37001 ft | 466 kts | 52° |
| 2026-04-28 17:37 | 47.04012 | 19.19824 | 37000 ft | 466 kts | 52° |
| 2026-04-28 17:38 | 47.08002 | 19.27324 | 37000 ft | 465 kts | 52° |
| 2026-04-28 17:38 | 47.11978 | 19.34819 | 37000 ft | 465 kts | 52° |
| 2026-04-28 17:39 | 47.15949 | 19.42326 | 37000 ft | 464 kts | 52° |
| 2026-04-28 17:40 | 47.21838 | 19.53555 | 36998 ft | 463 kts | 55° |
| 2026-04-28 17:40 | 47.25325 | 19.61512 | 37007 ft | 463 kts | 58° |
| 2026-04-28 17:41 | 47.28663 | 19.69631 | 37000 ft | 463 kts | 59° |
| 2026-04-28 17:41 | 47.32009 | 19.77727 | 37002 ft | 462 kts | 58° |
| 2026-04-28 17:42 | 47.35387 | 19.85818 | 37001 ft | 463 kts | 58° |
| 2026-04-28 17:42 | 47.38749 | 19.93850 | 37001 ft | 463 kts | 58° |
| 2026-04-28 17:43 | 47.42131 | 20.01949 | 37001 ft | 463 kts | 58° |
| 2026-04-28 17:43 | 47.45505 | 20.10057 | 37001 ft | 463 kts | 58° |
| 2026-04-28 17:44 | 47.48880 | 20.18192 | 37001 ft | 464 kts | 58° |
| 2026-04-28 17:44 | 47.52247 | 20.26334 | 37002 ft | 464 kts | 58° |
| 2026-04-28 17:45 | 47.55609 | 20.34489 | 37002 ft | 464 kts | 59° |
| 2026-04-28 17:45 | 47.58968 | 20.42660 | 37001 ft | 464 kts | 59° |
| 2026-04-28 17:46 | 47.62301 | 20.50792 | 37001 ft | 465 kts | 59° |
| 2026-04-28 17:46 | 47.65650 | 20.58989 | 37001 ft | 465 kts | 59° |
| 2026-04-28 17:47 | 47.68997 | 20.67206 | 37001 ft | 465 kts | 59° |
| 2026-04-28 17:47 | 47.72340 | 20.75436 | 37001 ft | 465 kts | 59° |
| 2026-04-28 17:48 | 47.75672 | 20.83666 | 37001 ft | 465 kts | 59° |
| 2026-04-28 17:48 | 47.79001 | 20.91913 | 37001 ft | 465 kts | 59° |
| 2026-04-28 17:49 | 47.82322 | 21.00165 | 37001 ft | 464 kts | 59° |
| 2026-04-28 17:49 | 47.85639 | 21.08434 | 37001 ft | 464 kts | 59° |
| 2026-04-28 17:50 | 47.88923 | 21.16645 | 37001 ft | 464 kts | 59° |
| 2026-04-28 17:50 | 47.92226 | 21.24928 | 37001 ft | 464 kts | 59° |
| 2026-04-28 17:51 | 47.95521 | 21.33215 | 37001 ft | 464 kts | 59° |
| 2026-04-28 17:51 | 47.98806 | 21.41505 | 37001 ft | 464 kts | 59° |
| 2026-04-28 17:52 | 48.02081 | 21.49796 | 37001 ft | 464 kts | 59° |
| 2026-04-28 17:52 | 48.06967 | 21.62212 | 37001 ft | 464 kts | 59° |
| 2026-04-28 17:53 | 48.10235 | 21.70548 | 37001 ft | 464 kts | 59° |
| 2026-04-28 17:53 | 48.13497 | 21.78894 | 37001 ft | 464 kts | 60° |
| 2026-04-28 17:54 | 48.16745 | 21.87233 | 37001 ft | 464 kts | 60° |
| 2026-04-28 17:54 | 48.19990 | 21.95587 | 37001 ft | 464 kts | 60° |
| 2026-04-28 17:55 | 48.23210 | 22.03905 | 37001 ft | 464 kts | 60° |
| 2026-04-28 17:55 | 48.26446 | 22.12290 | 37001 ft | 464 kts | 60° |
| 2026-04-28 17:56 | 48.29677 | 22.20689 | 37002 ft | 464 kts | 60° |
| 2026-04-28 17:56 | 48.32900 | 22.29090 | 37002 ft | 464 kts | 60° |
| 2026-04-28 17:57 | 48.35526 | 22.37927 | 37014 ft | 463 kts | 71° |
| 2026-04-28 17:57 | 48.37590 | 22.47121 | 37003 ft | 464 kts | 71° |
| 2026-04-28 17:58 | 48.39662 | 22.56321 | 37000 ft | 464 kts | 71° |
| 2026-04-28 17:58 | 48.41773 | 22.65508 | 37002 ft | 464 kts | 71° |
| 2026-04-28 17:59 | 48.43872 | 22.74627 | 37001 ft | 464 kts | 71° |
| 2026-04-28 17:59 | 48.45981 | 22.83852 | 37002 ft | 464 kts | 71° |
| 2026-04-28 18:00 | 48.48029 | 22.93080 | 37002 ft | 464 kts | 72° |
| 2026-04-28 18:00 | 48.50060 | 23.02348 | 37000 ft | 465 kts | 72° |
| 2026-04-28 18:01 | 48.52086 | 23.11596 | 37002 ft | 465 kts | 72° |
| 2026-04-28 18:01 | 48.54106 | 23.20791 | 37000 ft | 465 kts | 71° |
| 2026-04-28 18:02 | 48.56362 | 23.29920 | 37003 ft | 465 kts | 69° |
| 2026-04-28 18:02 | 48.58689 | 23.39038 | 36999 ft | 465 kts | 69° |
| 2026-04-28 18:03 | 48.60967 | 23.48168 | 37002 ft | 464 kts | 70° |
| 2026-04-28 18:03 | 48.63223 | 23.57324 | 37002 ft | 464 kts | 70° |
| 2026-04-28 18:04 | 48.65477 | 23.66557 | 37002 ft | 464 kts | 70° |
| 2026-04-28 18:04 | 48.67597 | 23.75786 | 37000 ft | 464 kts | 71° |
| 2026-04-28 18:05 | 48.69333 | 23.83496 | 37003 ft | 464 kts | 71° |
| 2026-04-28 18:05 | 48.71759 | 23.94249 | 37001 ft | 464 kts | 71° |
| 2026-04-28 18:06 | 48.73849 | 24.03506 | 37001 ft | 464 kts | 71° |
| 2026-04-28 18:06 | 48.75931 | 24.12759 | 37003 ft | 464 kts | 71° |
| 2026-04-28 18:07 | 48.78007 | 24.22024 | 37000 ft | 464 kts | 71° |
| 2026-04-28 18:07 | 48.80074 | 24.31297 | 37001 ft | 464 kts | 71° |
| 2026-04-28 18:08 | 48.82133 | 24.40569 | 37001 ft | 464 kts | 71° |
| 2026-04-28 18:08 | 48.84183 | 24.49849 | 37002 ft | 464 kts | 71° |
| 2026-04-28 18:09 | 48.86231 | 24.59150 | 37001 ft | 464 kts | 72° |
| 2026-04-28 18:09 | 48.88188 | 24.68477 | 36994 ft | 464 kts | 77° |
| 2026-04-28 18:10 | 48.88876 | 24.78188 | 37008 ft | 463 kts | 88° |
| 2026-04-28 18:10 | 48.89133 | 24.87889 | 37003 ft | 463 kts | 88° |
| 2026-04-28 18:11 | 48.89413 | 24.97686 | 37000 ft | 463 kts | 87° |
| 2026-04-28 18:11 | 48.89728 | 25.07471 | 37002 ft | 464 kts | 87° |
| 2026-04-28 18:12 | 48.90049 | 25.17266 | 37002 ft | 464 kts | 87° |
| 2026-04-28 18:12 | 48.90360 | 25.27072 | 37001 ft | 464 kts | 87° |
| 2026-04-28 18:13 | 48.90662 | 25.36888 | 37001 ft | 464 kts | 88° |
| 2026-04-28 18:13 | 48.90952 | 25.46632 | 37001 ft | 465 kts | 88° |
| 2026-04-28 18:14 | 48.91238 | 25.56444 | 37002 ft | 465 kts | 88° |
| 2026-04-28 18:14 | 48.91545 | 25.66262 | 37000 ft | 465 kts | 87° |
| 2026-04-28 18:15 | 48.91911 | 25.76069 | 37002 ft | 464 kts | 87° |
| 2026-04-28 18:15 | 48.92274 | 25.85879 | 37001 ft | 464 kts | 87° |
| 2026-04-28 18:16 | 48.92619 | 25.95689 | 37001 ft | 464 kts | 87° |
| 2026-04-28 18:16 | 48.92951 | 26.05505 | 37002 ft | 464 kts | 87° |
| 2026-04-28 18:17 | 48.93272 | 26.15257 | 37001 ft | 464 kts | 87° |
| 2026-04-28 18:17 | 48.93588 | 26.25062 | 37002 ft | 464 kts | 87° |
| 2026-04-28 18:18 | 48.93895 | 26.34866 | 37001 ft | 464 kts | 88° |
| 2026-04-28 18:18 | 48.94143 | 26.43005 | 37002 ft | 464 kts | 88° |
| 2026-04-28 18:19 | 48.94484 | 26.54461 | 37001 ft | 464 kts | 88° |
| 2026-04-28 18:19 | 48.94720 | 26.62611 | 37001 ft | 464 kts | 88° |
| 2026-04-28 18:20 | 48.95027 | 26.74003 | 37001 ft | 464 kts | 88° |
| 2026-04-28 18:20 | 48.95207 | 26.82158 | 37002 ft | 464 kts | 88° |
| 2026-04-28 18:21 | 48.95412 | 26.92027 | 37001 ft | 464 kts | 88° |
| 2026-04-28 18:21 | 48.95612 | 27.01786 | 37001 ft | 464 kts | 88° |
| 2026-04-28 18:22 | 48.95807 | 27.11599 | 37001 ft | 464 kts | 88° |
| 2026-04-28 18:22 | 48.95995 | 27.21414 | 38308 ft | 464 kts | 86° |
| 2026-04-28 18:23 | 48.96085 | 27.26383 | 38016 ft | 474 kts | 86° |
| 2026-04-28 18:23 | 48.96178 | 27.31440 | 37791 ft | 483 kts | 86° |
| 2026-04-28 18:23 | 48.96272 | 27.36604 | 37569 ft | 492 kts | 86° |
| 2026-04-28 18:23 | 48.96362 | 27.41772 | 37409 ft | 497 kts | 86° |
| 2026-04-28 18:24 | 48.96507 | 27.50603 | 37285 ft | 498 kts | 86° |
| 2026-04-28 18:24 | 48.96696 | 27.62832 | 37224 ft | 496 kts | 86° |
| 2026-04-28 18:25 | 48.96850 | 27.73318 | 37211 ft | 494 kts | 86° |
| 2026-04-28 18:26 | 48.97039 | 27.88935 | 37217 ft | 491 kts | 87° |
| 2026-04-28 18:26 | 48.97031 | 27.99253 | 37221 ft | 489 kts | 88° |
| 2026-04-28 18:27 | 48.96997 | 28.09622 | 37217 ft | 489 kts | 88° |
| 2026-04-28 18:27 | 48.96969 | 28.19971 | 37223 ft | 489 kts | 88° |
| 2026-04-28 18:28 | 48.96941 | 28.30339 | 37220 ft | 491 kts | 88° |
| 2026-04-28 18:28 | 48.96904 | 28.40748 | 37220 ft | 492 kts | 88° |
| 2026-04-28 18:29 | 48.96857 | 28.51192 | 37217 ft | 494 kts | 88° |
| 2026-04-28 18:29 | 48.96799 | 28.61672 | 37216 ft | 496 kts | 88° |
| 2026-04-28 18:30 | 48.96734 | 28.72118 | 37214 ft | 497 kts | 88° |
| 2026-04-28 18:30 | 48.96725 | 28.82637 | 37204 ft | 496 kts | 83° |
| 2026-04-28 18:31 | 48.98063 | 28.92848 | 37217 ft | 490 kts | 69° |
| 2026-04-28 18:31 | 49.00116 | 29.02758 | 37210 ft | 491 kts | 69° |
| 2026-04-28 18:32 | 49.02164 | 29.12695 | 37206 ft | 491 kts | 69° |
| 2026-04-28 18:32 | 49.04153 | 29.22650 | 37211 ft | 491 kts | 70° |
| 2026-04-28 18:33 | 49.06112 | 29.32624 | 37200 ft | 491 kts | 70° |
| 2026-04-28 18:33 | 49.08046 | 29.42535 | 37202 ft | 490 kts | 70° |
| 2026-04-28 18:34 | 49.09994 | 29.52544 | 36596 ft | 496 kts | 70° |
| 2026-04-28 18:34 | 49.10967 | 29.57566 | 36034 ft | 493 kts | 70° |
| 2026-04-28 18:34 | 49.11933 | 29.62567 | 35430 ft | 487 kts | 70° |
| 2026-04-28 18:34 | 49.12885 | 29.67516 | 34665 ft | 483 kts | 70° |
| 2026-04-28 18:35 | 49.13832 | 29.72443 | 33700 ft | 483 kts | 70° |
| 2026-04-28 18:35 | 49.14776 | 29.77359 | 32682 ft | 482 kts | 70° |
| 2026-04-28 18:35 | 49.15712 | 29.82257 | 31991 ft | 477 kts | 70° |
| 2026-04-28 18:35 | 49.16642 | 29.87126 | 31256 ft | 479 kts | 70° |
| 2026-04-28 18:36 | 49.17576 | 29.92028 | 30535 ft | 480 kts | 70° |
| 2026-04-28 18:36 | 49.18509 | 29.96936 | 29703 ft | 483 kts | 70° |
| 2026-04-28 18:36 | 49.19444 | 30.01872 | 28877 ft | 483 kts | 70° |
| 2026-04-28 18:36 | 49.20377 | 30.06812 | 28051 ft | 483 kts | 69° |
| 2026-04-28 18:37 | 49.21307 | 30.11753 | 27388 ft | 481 kts | 69° |
| 2026-04-28 18:37 | 49.22211 | 30.16579 | 26814 ft | 477 kts | 69° |
| 2026-04-28 18:37 | 49.23120 | 30.21435 | 26252 ft | 472 kts | 69° |
| 2026-04-28 18:37 | 49.24019 | 30.26242 | 25678 ft | 469 kts | 69° |
| 2026-04-28 18:38 | 49.24911 | 30.31021 | 25103 ft | 466 kts | 69° |
| 2026-04-28 18:38 | 49.25816 | 30.35769 | 24545 ft | 461 kts | 65° |
| 2026-04-28 18:38 | 49.27185 | 30.40120 | 23985 ft | 447 kts | 50° |
| 2026-04-28 18:38 | 49.29102 | 30.43753 | 23420 ft | 432 kts | 37° |
| 2026-04-28 18:39 | 49.31404 | 30.46614 | 22850 ft | 424 kts | 24° |
| 2026-04-28 18:39 | 49.33958 | 30.48932 | 22281 ft | 428 kts | 22° |
| 2026-04-28 18:39 | 49.36517 | 30.51244 | 21681 ft | 424 kts | 23° |
| 2026-04-28 18:39 | 49.39034 | 30.53550 | 21090 ft | 419 kts | 23° |
| 2026-04-28 18:40 | 49.41527 | 30.55862 | 20529 ft | 415 kts | 23° |
| 2026-04-28 18:40 | 49.43978 | 30.58153 | 19953 ft | 411 kts | 23° |
| 2026-04-28 18:40 | 49.46406 | 30.60431 | 19399 ft | 407 kts | 23° |
| 2026-04-28 18:40 | 49.48787 | 30.62668 | 18848 ft | 404 kts | 23° |
| 2026-04-28 18:41 | 49.51176 | 30.64914 | 18271 ft | 401 kts | 23° |
| 2026-04-28 18:41 | 49.53552 | 30.67151 | 17642 ft | 397 kts | 23° |
| 2026-04-28 18:41 | 49.55966 | 30.69073 | 17065 ft | 384 kts | 14° |
| 2026-04-28 18:41 | 49.58472 | 30.70290 | 16501 ft | 373 kts | 5° |
| 2026-04-28 18:42 | 49.61001 | 30.71115 | 15970 ft | 370 kts | 5° |
| 2026-04-28 18:42 | 49.63517 | 30.71937 | 15420 ft | 369 kts | 5° |
| 2026-04-28 18:42 | 49.66026 | 30.72768 | 14874 ft | 367 kts | 5° |
| 2026-04-28 18:42 | 49.68513 | 30.73602 | 14341 ft | 365 kts | 6° |
| 2026-04-28 18:43 | 49.70987 | 30.74439 | 13785 ft | 363 kts | 6° |
| 2026-04-28 18:43 | 49.73441 | 30.75274 | 13194 ft | 359 kts | 6° |
| 2026-04-28 18:43 | 49.75869 | 30.76105 | 12664 ft | 355 kts | 6° |
| 2026-04-28 18:43 | 49.78262 | 30.76924 | 12131 ft | 351 kts | 6° |
| 2026-04-28 18:44 | 49.80632 | 30.77737 | 11612 ft | 347 kts | 6° |
| 2026-04-28 18:44 | 49.85325 | 30.79346 | 10455 ft | 344 kts | 7° |
| 2026-04-28 18:44 | 49.87654 | 30.80147 | 9924 ft | 341 kts | 7° |
| 2026-04-28 18:45 | 49.89889 | 30.80924 | 9860 ft | 316 kts | 7° |
| 2026-04-28 18:45 | 49.91930 | 30.81638 | 9746 ft | 294 kts | 6° |
| 2026-04-28 18:45 | 49.93867 | 30.82312 | 9605 ft | 276 kts | 6° |
| 2026-04-28 18:45 | 49.95691 | 30.82943 | 9475 ft | 260 kts | 5° |
| 2026-04-28 18:46 | 49.97429 | 30.83541 | 9127 ft | 254 kts | 5° |
| 2026-04-28 18:46 | 49.99152 | 30.84129 | 8644 ft | 253 kts | 5° |
| 2026-04-28 18:46 | 50.00869 | 30.84716 | 8188 ft | 251 kts | 5° |
| 2026-04-28 18:46 | 50.02570 | 30.85300 | 7747 ft | 250 kts | 5° |
| 2026-04-28 18:47 | 50.04257 | 30.85883 | 7418 ft | 244 kts | 5° |
| 2026-04-28 18:47 | 50.05886 | 30.86448 | 7100 ft | 238 kts | 5° |
| 2026-04-28 18:47 | 50.07546 | 30.87018 | 6363 ft | 250 kts | 6° |
| 2026-04-28 18:47 | 50.09236 | 30.87603 | 5766 ft | 247 kts | 6° |
| 2026-04-28 18:48 | 50.10919 | 30.88187 | 5070 ft | 248 kts | 7° |
| 2026-04-28 18:48 | 50.12559 | 30.88974 | 4572 ft | 243 kts | 12° |
| 2026-04-28 18:48 | 50.14167 | 30.89205 | 4227 ft | 224 kts | 351° |
| 2026-04-28 18:48 | 50.15689 | 30.89131 | 3906 ft | 214 kts | 357° |
| 2026-04-28 18:49 | 50.17132 | 30.89234 | 3614 ft | 201 kts | 358° |
| 2026-04-28 18:49 | 50.17601 | 30.89274 | 3529 ft | 197 kts | 358° |
| 2026-04-28 18:49 | 50.19766 | 30.89445 | 3085 ft | 175 kts | 357° |
| 2026-04-28 18:49 | 50.20907 | 30.89531 | 2855 ft | 158 kts | 357° |
| 2026-04-28 18:50 | 50.21980 | 30.89608 | 2641 ft | 152 kts | 357° |
| 2026-04-28 18:50 | 50.23038 | 30.89684 | 2438 ft | 152 kts | 357° |
| 2026-04-28 18:50 | 50.24079 | 30.89761 | 2219 ft | 146 kts | 356° |
| 2026-04-28 18:50 | 50.25041 | 30.89835 | 2030 ft | 132 kts | 355° |
| 2026-04-28 18:51 | 50.25934 | 30.89899 | 1899 ft | 129 kts | 356° |
| 2026-04-28 18:51 | 50.26861 | 30.89965 | 1677 ft | 134 kts | 357° |
| 2026-04-28 18:51 | 50.27805 | 30.90034 | 1478 ft | 137 kts | 358° |
| 2026-04-28 18:51 | 50.28768 | 30.90107 | 1243 ft | 140 kts | 359° |
| 2026-04-28 18:52 | 50.29745 | 30.90175 | 999 ft | 142 kts | 359° |
| 2026-04-28 18:52 | 50.30732 | 30.90241 | 815 ft | 142 kts | 0° |
| 2026-04-28 18:52 | 50.31717 | 30.90326 | 620 ft | 142 kts | 356° |
| 2026-04-28 18:52 | 50.32707 | 30.90398 | 435 ft | 137 kts | 1° |
| 2026-04-28 18:53 | 50.33554 | 30.90462 | 423 ft | 105 kts | 3° |
| 2026-04-28 18:53 | 50.34167 | 30.90512 | 413 ft | 71 kts | 1° |
| 2026-04-28 18:53 | 50.34569 | 30.90538 | 417 ft | 52 kts | 3° |
| 2026-04-28 18:53 | 50.34908 | 30.90560 | 415 ft | 45 kts | 2° |
| 2026-04-28 18:54 | 50.35144 | 30.90511 | 419 ft | 33 kts | 340° |
| 2026-04-28 18:54 | 50.35294 | 30.90389 | 410 ft | 0 kts | 319° |
| 2026-04-28 18:56 | 50.35307 | 30.90361 | 414 ft | 10 kts | 294° |
| 2026-04-28 18:56 | 50.35245 | 30.90264 | 414 ft | 21 kts | 182° |
| 2026-04-28 18:56 | 50.35055 | 30.90250 | 410 ft | 32 kts | 181° |
| 2026-04-28 18:57 | 50.34835 | 30.90233 | 407 ft | 31 kts | 182° |
| 2026-04-28 18:57 | 50.34626 | 30.90219 | 412 ft | 29 kts | 182° |
| 2026-04-28 18:57 | 50.34429 | 30.90207 | 410 ft | 27 kts | 182° |
| 2026-04-28 18:57 | 50.34244 | 30.90192 | 407 ft | 26 kts | 183° |
| 2026-04-28 18:58 | 50.34047 | 30.90175 | 411 ft | 28 kts | 183° |
| 2026-04-28 18:58 | 50.33855 | 30.90162 | 406 ft | 27 kts | 182° |
| 2026-04-28 18:58 | 50.33675 | 30.90149 | 411 ft | 25 kts | 182° |
| 2026-04-28 18:58 | 50.33599 | 30.90141 | 414 ft | 4 kts | 184° |
| 2026-04-28 18:59 | 50.33529 | 30.90125 | 410 ft | 17 kts | 205° |
| 2026-04-28 18:59 | 50.33498 | 30.89959 | 414 ft | 13 kts | 269° |
| 2026-04-28 18:59 | 50.33530 | 30.89924 | 414 ft | 9 kts | 3° |
| 2026-04-28 18:59 | 50.33560 | 30.89928 | 414 ft | 2 kts | 4° |
| 2026-04-28 19:00 | 50.33564 | 30.89929 | 414 ft | 0 kts | 4° |